Time;durP1;ratioP1;P1;durP2;ratioP2;P2;SDS_P1;SDS_P2;PMS_P1;PMS_P2;Temp;Humidity;BMP_temperature;BMP_pressure;BME280_temperature;BME280_humidity;BME280_pressure;Samples;Min_cycle;Max_cycle;Signal;HPM_P1;HPM_P2
2023/06/28 00:01:14;;;;;;;0.60;0.30;;;;;;;17.95;100.00;100447.84;4915013;28;20031;-79
2023/06/28 00:03:40;;;;;;;2.17;0.80;;;;;;;17.73;100.00;100453.22;4938481;29;20430;-79
2023/06/28 00:06:06;;;;;;;2.60;1.10;;;;;;;17.54;100.00;100460.03;4945679;28;20484;-79
2023/06/28 00:08:32;;;;;;;1.52;1.15;;;;;;;17.34;100.00;100461.47;4957866;28;20046;-78
2023/06/28 00:10:59;;;;;;;2.42;1.10;;;;;;;17.23;100.00;100457.47;4970859;28;20027;-81
2023/06/28 00:13:24;;;;;;;3.83;1.45;;;;;;;17.14;100.00;100457.78;4941268;28;20047;-80
2023/06/28 00:15:51;;;;;;;2.90;1.35;;;;;;;17.11;100.00;100458.97;4970793;28;20043;-80
2023/06/28 00:18:16;;;;;;;3.40;1.38;;;;;;;17.13;100.00;100450.75;4985061;28;20181;-81
2023/06/28 00:20:42;;;;;;;2.30;1.23;;;;;;;17.14;100.00;100447.09;4940891;28;20104;-81
2023/06/28 00:23:08;;;;;;;4.68;1.10;;;;;;;17.19;100.00;100461.53;4942056;28;20066;-80
2023/06/28 00:25:35;;;;;;;3.17;1.20;;;;;;;17.22;100.00;100455.81;4989432;28;20035;-81
2023/06/28 00:28:01;;;;;;;3.65;1.30;;;;;;;17.26;100.00;100450.94;4949222;28;20026;-80
2023/06/28 00:30:27;;;;;;;2.15;1.00;;;;;;;17.30;100.00;100446.00;4954646;28;20446;-81
2023/06/28 00:32:53;;;;;;;2.35;1.20;;;;;;;17.34;100.00;100442.78;4954916;28;20046;-80
2023/06/28 00:35:19;;;;;;;1.65;0.90;;;;;;;17.39;100.00;100452.09;4951621;28;20036;-80
2023/06/28 00:37:45;;;;;;;2.25;1.20;;;;;;;17.41;100.00;100444.69;4940017;28;20508;-78
2023/06/28 00:40:11;;;;;;;2.53;0.82;;;;;;;17.44;100.00;100444.34;4955654;28;20039;-80
2023/06/28 00:42:36;;;;;;;2.80;1.25;;;;;;;17.48;100.00;100438.41;4955751;28;20031;-81
2023/06/28 00:45:02;;;;;;;1.42;1.00;;;;;;;17.51;100.00;100437.19;4942548;28;20038;-81
2023/06/28 00:47:30;;;;;;;3.17;1.30;;;;;;;17.56;100.00;100428.59;4931032;28;20043;-81
2023/06/28 00:49:57;;;;;;;1.25;1.15;;;;;;;17.57;100.00;100436.44;4949635;28;20110;-81
2023/06/28 00:52:24;;;;;;;1.52;1.20;;;;;;;17.58;100.00;100429.25;4968512;28;20065;-81
2023/06/28 00:54:52;;;;;;;4.22;1.13;;;;;;;17.58;100.00;100430.06;4956745;28;20589;-81
2023/06/28 00:57:20;;;;;;;1.80;1.27;;;;;;;17.58;100.00;100427.38;4926472;28;20125;-81
2023/06/28 00:59:48;;;;;;;3.35;1.30;;;;;;;17.67;100.00;100432.63;4956016;28;20130;-81
2023/06/28 01:02:14;;;;;;;2.33;1.10;;;;;;;17.66;100.00;100423.75;4939603;28;20070;-81
2023/06/28 01:04:43;;;;;;;2.38;1.30;;;;;;;17.70;100.00;100437.56;4953237;28;20113;-81
2023/06/28 01:07:10;;;;;;;4.00;1.02;;;;;;;17.68;100.00;100427.06;4978336;28;20080;-81
2023/06/28 01:09:37;;;;;;;3.05;1.33;;;;;;;17.68;100.00;100423.56;4957624;28;20089;-84
2023/06/28 01:12:05;;;;;;;6.38;1.58;;;;;;;17.67;100.00;100409.38;4955864;28;20490;-79
2023/06/28 01:14:31;;;;;;;4.47;1.50;;;;;;;17.71;100.00;100401.81;4971069;28;20438;-80
2023/06/28 01:16:57;;;;;;;2.83;1.85;;;;;;;17.74;100.00;100398.75;4927871;28;20513;-81
2023/06/28 01:19:29;;;;;;;4.05;2.15;;;;;;;17.74;100.00;100396.09;4955563;28;20066;-81
2023/06/28 01:22:00;;;;;;;2.40;1.88;;;;;;;17.75;100.00;100388.88;4939746;29;20034;-81
2023/06/28 01:24:26;;;;;;;4.20;1.88;;;;;;;17.70;100.00;100392.13;4980273;28;20027;-81
2023/06/28 01:26:58;;;;;;;6.28;2.00;;;;;;;17.69;100.00;100380.63;4942664;28;20046;-81
2023/06/28 01:29:24;;;;;;;5.05;2.97;;;;;;;17.64;100.00;100382.22;4964459;28;20757;-82
2023/06/28 01:31:52;;;;;;;2.78;2.05;;;;;;;17.61;100.00;100388.78;4939433;28;20377;-81
2023/06/28 01:34:19;;;;;;;6.88;2.17;;;;;;;17.58;100.00;100381.16;4955105;28;20031;-81
2023/06/28 01:36:47;;;;;;;7.20;2.00;;;;;;;17.57;100.00;100383.00;4943458;28;20030;-81
2023/06/28 01:39:16;;;;;;;4.72;2.10;;;;;;;17.53;100.00;100384.41;4955344;28;20070;-81
2023/06/28 01:41:44;;;;;;;4.35;2.22;;;;;;;17.46;100.00;100387.00;4950553;28;20100;-81
2023/06/28 01:44:11;;;;;;;4.70;1.98;;;;;;;17.44;100.00;100402.38;4969804;28;20110;-81
2023/06/28 01:46:38;;;;;;;6.47;2.05;;;;;;;17.45;100.00;100406.75;4938951;28;20031;-81
2023/06/28 01:49:04;;;;;;;4.30;1.90;;;;;;;17.47;100.00;100395.84;4953333;28;20035;-82
2023/06/28 01:51:30;;;;;;;4.07;2.10;;;;;;;17.47;100.00;100407.34;4960088;28;20529;-81
2023/06/28 01:53:56;;;;;;;5.45;1.80;;;;;;;17.43;100.00;100400.75;4956459;28;20054;-81
2023/06/28 01:56:22;;;;;;;4.30;1.95;;;;;;;17.46;100.00;100395.03;4975078;28;20030;-80
2023/06/28 01:58:48;;;;;;;7.18;1.92;;;;;;;17.48;100.00;100382.31;4950387;28;20891;-80
2023/06/28 02:01:14;;;;;;;4.78;2.10;;;;;;;17.47;100.00;100383.31;4978768;28;20038;-81
2023/06/28 02:03:40;;;;;;;5.75;1.98;;;;;;;17.48;100.00;100384.97;4957960;28;20030;-80
2023/06/28 02:06:08;;;;;;;2.50;1.73;;;;;;;17.46;100.00;100379.00;4957930;28;20489;-81
2023/06/28 02:08:34;;;;;;;4.50;1.60;;;;;;;17.46;100.00;100381.66;4960945;28;20492;-81
2023/06/28 02:11:00;;;;;;;6.60;1.98;;;;;;;17.48;100.00;100384.97;4960286;28;20039;-81
2023/06/28 02:13:26;;;;;;;4.47;1.88;;;;;;;17.52;100.00;100376.56;4985223;28;20042;-82
2023/06/28 02:15:51;;;;;;;5.30;2.22;;;;;;;17.52;100.00;100381.94;4978288;28;20508;-80
2023/06/28 02:18:17;;;;;;;2.97;1.65;;;;;;;17.55;100.00;100384.22;4980104;28;20055;-80
2023/06/28 02:20:44;;;;;;;5.28;1.90;;;;;;;17.59;100.00;100378.28;4956134;28;20042;-81
2023/06/28 02:23:10;;;;;;;4.20;1.95;;;;;;;17.64;100.00;100380.38;4968847;28;20052;-81
2023/06/28 02:25:36;;;;;;;3.00;1.85;;;;;;;17.68;100.00;100375.44;4981959;28;20109;-80
2023/06/28 02:28:02;;;;;;;4.32;1.40;;;;;;;17.70;100.00;100379.59;4957617;28;20494;-81
2023/06/28 02:30:28;;;;;;;3.40;1.70;;;;;;;17.72;100.00;100387.44;4973161;28;20080;-81
2023/06/28 02:32:54;;;;;;;3.45;1.52;;;;;;;17.72;100.00;100382.91;4941797;28;20400;-79
2023/06/28 02:35:20;;;;;;;2.47;1.50;;;;;;;17.73;100.00;100384.56;4970185;28;20122;-81
2023/06/28 02:37:45;;;;;;;4.50;1.75;;;;;;;17.72;100.00;100380.25;4972196;28;20050;-81
2023/06/28 02:40:13;;;;;;;2.85;1.50;;;;;;;17.72;100.00;100371.38;4957962;28;20042;-80
2023/06/28 02:42:40;;;;;;;4.68;1.23;;;;;;;17.71;100.00;100375.09;4971934;28;20425;-80
2023/06/28 02:45:06;;;;;;;5.25;1.48;;;;;;;17.66;100.00;100380.19;4941715;28;20030;-81
2023/06/28 02:47:32;;;;;;;2.78;1.23;;;;;;;17.63;100.00;100372.56;4986105;28;20492;-80
2023/06/28 02:50:05;;;;;;;2.15;1.35;;;;;;;17.61;100.00;100368.22;4973580;28;20494;-81
2023/06/28 02:52:33;;;;;;;1.85;1.30;;;;;;;17.58;100.00;100359.78;4961020;28;20035;-81
2023/06/28 02:54:59;;;;;;;5.43;1.70;;;;;;;17.57;100.00;100340.22;4978994;28;20439;-81
2023/06/28 02:57:26;;;;;;;1.60;1.20;;;;;;;17.53;100.00;100360.34;4958153;28;20035;-81
2023/06/28 02:59:57;;;;;;;2.53;1.33;;;;;;;17.51;100.00;100361.53;4951944;28;20046;-80
2023/06/28 03:02:23;;;;;;;2.58;1.48;;;;;;;17.51;100.00;100361.53;4973677;28;20088;-81
2023/06/28 03:04:50;;;;;;;1.73;1.08;;;;;;;17.51;100.00;100362.38;4940251;28;20038;-81
2023/06/28 03:07:17;;;;;;;2.75;1.55;;;;;;;17.53;100.00;100357.69;4972860;28;20041;-80
2023/06/28 03:09:43;;;;;;;2.70;1.20;;;;;;;17.52;100.00;100348.00;4981557;28;20030;-79
2023/06/28 03:12:10;;;;;;;4.30;1.35;;;;;;;17.56;100.00;100337.75;4966738;28;20042;-81
2023/06/28 03:14:36;;;;;;;2.67;1.25;;;;;;;17.57;100.00;100342.06;4944320;28;20035;-82
2023/06/28 03:17:02;;;;;;;2.88;1.50;;;;;;;17.56;100.00;100330.56;4934757;28;20065;-80
2023/06/28 03:19:28;;;;;;;4.40;1.20;;;;;;;17.55;100.00;100326.22;4976393;28;20065;-80
2023/06/28 03:21:55;;;;;;;3.70;1.20;;;;;;;17.55;100.00;100317.41;4950453;28;20066;-80
2023/06/28 03:24:21;;;;;;;1.35;1.25;;;;;;;17.52;100.00;100317.78;4946615;28;20444;-80
2023/06/28 03:26:47;;;;;;;5.05;1.30;;;;;;;17.51;100.00;100322.28;4976428;28;20034;-81
2023/06/28 03:29:13;;;;;;;1.95;1.30;;;;;;;17.47;100.00;100313.84;4968078;28;20027;-81
2023/06/28 03:31:40;;;;;;;2.72;1.20;;;;;;;17.49;100.00;100327.00;4956689;28;20535;-82
2023/06/28 03:34:06;;;;;;;5.05;1.38;;;;;;;17.48;100.00;100310.16;4980162;28;20031;-80
2023/06/28 03:36:32;;;;;;;1.48;1.25;;;;;;;17.47;100.00;100311.16;4977178;28;20029;-81
2023/06/28 03:38:58;;;;;;;3.67;1.20;;;;;;;17.44;100.00;100306.22;4971661;28;20132;-80
2023/06/28 03:41:27;;;;;;;1.33;0.88;;;;;;;17.43;100.00;100301.91;4971725;28;20057;-81
2023/06/28 03:43:52;;;;;;;2.78;1.00;;;;;;;17.40;100.00;100302.28;4964026;28;20061;-81
2023/06/28 03:46:18;;;;;;;3.88;1.30;;;;;;;17.36;100.00;100293.81;4958170;28;20033;-80
2023/06/28 03:48:44;;;;;;;3.63;1.02;;;;;;;17.35;100.00;100297.53;4996795;28;20044;-81
2023/06/28 03:51:10;;;;;;;4.75;1.13;;;;;;;17.36;100.00;100290.31;4974060;28;20038;-81
2023/06/28 03:53:36;;;;;;;1.13;1.00;;;;;;;17.35;100.00;100283.31;4973123;28;20379;-81
2023/06/28 03:56:02;;;;;;;2.88;1.00;;;;;;;17.35;100.00;100294.00;4968055;28;20039;-81
2023/06/28 03:58:29;;;;;;;4.25;2.45;;;;;;;17.34;100.00;100298.53;4958472;28;20034;-81
2023/06/28 04:00:55;;;;;;;3.38;1.00;;;;;;;17.33;100.00;100293.38;4964989;28;20041;-81
2023/06/28 04:03:21;;;;;;;1.50;1.08;;;;;;;17.35;100.00;100296.69;4940471;28;20034;-81
2023/06/28 04:05:47;;;;;;;2.78;1.15;;;;;;;17.33;100.00;100283.53;4963013;28;20034;-80
2023/06/28 04:08:12;;;;;;;4.63;1.27;;;;;;;17.31;100.00;100288.22;4967576;28;20039;-81
2023/06/28 04:10:38;;;;;;;2.47;1.10;;;;;;;17.34;100.00;100287.84;4969867;28;20039;-81
2023/06/28 04:13:04;;;;;;;3.47;1.00;;;;;;;17.30;100.00;100283.06;4975424;28;20526;-81
2023/06/28 04:15:30;;;;;;;1.75;1.20;;;;;;;17.31;100.00;100285.53;4968600;28;20042;-81
2023/06/28 04:17:56;;;;;;;3.67;1.23;;;;;;;17.27;100.00;100278.94;4940484;28;20042;-81
2023/06/28 04:20:22;;;;;;;2.80;1.25;;;;;;;17.26;100.00;100277.31;4956273;28;20043;-81
2023/06/28 04:22:47;;;;;;;4.70;0.98;;;;;;;17.26;100.00;100268.47;4956956;28;20038;-81
2023/06/28 04:25:13;;;;;;;2.58;1.08;;;;;;;17.25;100.00;100259.59;4975044;28;20038;-80
2023/06/28 04:27:39;;;;;;;4.63;1.25;;;;;;;17.25;100.00;100261.47;4962853;28;20046;-81
2023/06/28 04:30:07;;;;;;;1.73;1.05;;;;;;;17.27;100.00;100276.28;4987753;28;20030;-81
2023/06/28 04:32:33;;;;;;;4.63;1.20;;;;;;;17.28;100.00;100267.25;4940791;28;20038;-79
2023/06/28 04:34:59;;;;;;;4.60;1.17;;;;;;;17.30;100.00;100261.69;4953102;28;20375;-81
2023/06/28 04:37:31;;;;;;;1.80;1.17;;;;;;;17.34;100.00;100260.31;4966995;28;20089;-81
2023/06/28 04:39:58;;;;;;;5.20;1.52;;;;;;;17.36;100.00;100263.59;4940884;28;20027;-81
2023/06/28 04:42:24;;;;;;;5.03;1.38;;;;;;;17.37;100.00;100259.94;4937310;29;20382;-81
2023/06/28 04:44:50;;;;;;;1.50;1.40;;;;;;;17.39;100.00;100263.22;4981942;28;20035;-81
2023/06/28 04:47:17;;;;;;;2.85;1.20;;;;;;;17.41;100.00;100261.19;4969486;28;20046;-80
2023/06/28 04:49:47;;;;;;;5.90;1.70;;;;;;;17.38;100.00;100258.06;4958889;28;20093;-81
2023/06/28 04:52:15;;;;;;;6.32;1.63;;;;;;;17.36;100.00;100258.25;4953531;28;20031;-81
2023/06/28 04:54:41;;;;;;;5.72;1.80;;;;;;;17.31;100.00;100242.81;4924052;28;20529;-81
2023/06/28 04:57:07;;;;;;;8.55;1.58;;;;;;;17.29;100.00;100236.84;4939995;28;20069;-80
2023/06/28 04:59:33;;;;;;;5.10;1.40;;;;;;;17.29;100.00;100246.72;4940219;28;20030;-81
2023/06/28 05:01:59;;;;;;;6.93;1.88;;;;;;;17.27;100.00;100238.06;4955987;28;20043;-81
2023/06/28 05:04:25;;;;;;;6.75;1.33;;;;;;;17.27;100.00;100240.72;4925438;28;20038;-82
2023/06/28 05:06:53;;;;;;;4.20;1.58;;;;;;;17.22;100.00;100236.78;4947206;28;20035;-82
2023/06/28 05:09:20;;;;;;;2.60;2.00;;;;;;;17.23;100.00;100240.31;4939530;28;20035;-81
2023/06/28 05:11:45;;;;;;;6.03;2.00;;;;;;;17.18;100.00;100238.22;4943938;28;20027;-82
2023/06/28 05:14:11;;;;;;;4.07;2.10;;;;;;;17.16;100.00;100244.75;4940524;28;20125;-83
2023/06/28 05:16:37;;;;;;;6.60;2.30;;;;;;;17.15;100.00;100241.28;4944371;28;20397;-83
2023/06/28 05:19:03;;;;;;;4.85;2.15;;;;;;;17.13;100.00;100229.94;4949463;28;20031;-82
2023/06/28 05:21:29;;;;;;;4.60;2.10;;;;;;;17.11;100.00;100224.81;4940370;28;20495;-82
2023/06/28 05:23:54;;;;;;;4.85;1.90;;;;;;;17.11;100.00;100226.63;4939924;28;20054;-82
2023/06/28 05:26:20;;;;;;;2.15;1.67;;;;;;;17.16;100.00;100216.22;4954342;28;20359;-83
2023/06/28 05:28:46;;;;;;;3.42;1.80;;;;;;;17.16;100.00;100220.72;4939524;28;20051;-81
2023/06/28 05:31:12;;;;;;;4.90;1.80;;;;;;;17.16;100.00;100218.03;4934446;28;20027;-83
2023/06/28 05:33:40;;;;;;;4.07;2.13;;;;;;;17.16;100.00;100212.69;4924197;28;20061;-84
2023/06/28 05:36:07;;;;;;;6.28;2.28;;;;;;;17.16;100.00;100199.34;4945100;28;20039;-82
2023/06/28 05:38:32;;;;;;;5.70;1.80;;;;;;;17.16;100.00;100210.88;4941696;28;20039;-82
2023/06/28 05:41:12;;;;;;;3.33;1.75;;;;;;;17.19;100.00;100199.78;4935107;28;20061;-82
2023/06/28 05:43:38;;;;;;;5.15;1.60;;;;;;;17.16;100.00;100197.50;4989690;28;20033;-82
2023/06/28 05:46:03;;;;;;;5.05;2.05;;;;;;;17.15;100.00;100203.06;4930292;28;20046;-82
2023/06/28 05:48:31;;;;;;;3.65;1.52;;;;;;;17.17;100.00;100191.16;4960653;28;20045;-83
2023/06/28 05:50:56;;;;;;;5.30;1.65;;;;;;;17.18;100.00;100186.63;4943835;28;20038;-82
2023/06/28 05:53:22;;;;;;;2.92;1.30;;;;;;;17.17;100.00;100171.66;4956342;28;20510;-83
2023/06/28 05:55:48;;;;;;;4.90;1.30;;;;;;;17.13;100.00;100163.19;4967515;28;20081;-83
2023/06/28 05:58:14;;;;;;;1.98;1.40;;;;;;;17.13;100.00;100162.34;4975811;28;20037;-82
2023/06/28 06:00:42;;;;;;;2.53;1.42;;;;;;;17.14;100.00;100158.69;4961674;28;20516;-82
2023/06/28 06:03:08;;;;;;;2.45;1.40;;;;;;;17.11;100.00;100166.06;4978353;28;20053;-82
2023/06/28 06:05:33;;;;;;;2.67;1.38;;;;;;;17.16;100.00;100178.81;4951289;28;20039;-82
2023/06/28 06:07:59;;;;;;;4.10;1.55;;;;;;;17.19;100.00;100190.94;4964075;28;21139;-81
2023/06/28 06:10:26;;;;;;;3.00;1.15;;;;;;;17.21;100.00;100181.75;4971543;28;20030;-82
2023/06/28 06:12:53;;;;;;;2.45;1.17;;;;;;;17.24;100.00;100169.84;4970253;28;20062;-83
2023/06/28 06:15:19;;;;;;;2.53;1.00;;;;;;;17.22;100.00;100180.72;4945788;28;20600;-82
2023/06/28 06:17:46;;;;;;;1.83;1.00;;;;;;;17.30;100.00;100186.91;4948199;29;20043;-83
2023/06/28 06:20:15;;;;;;;1.63;1.13;;;;;;;17.33;100.00;100190.03;4970823;28;20505;-83
2023/06/28 06:22:42;;;;;;;2.50;1.05;;;;;;;17.35;100.00;100187.16;4955900;28;20027;-82
2023/06/28 06:25:08;;;;;;;3.42;1.30;;;;;;;17.36;100.00;100173.59;4956172;28;20516;-82
2023/06/28 06:27:34;;;;;;;1.90;1.15;;;;;;;17.39;100.00;100191.06;4952921;28;20054;-83
2023/06/28 06:30:01;;;;;;;3.78;1.10;;;;;;;17.39;100.00;100192.94;4967409;28;20081;-82
2023/06/28 06:32:27;;;;;;;2.95;0.93;;;;;;;17.40;100.00;100183.91;4956202;28;20133;-82
2023/06/28 06:34:53;;;;;;;1.45;1.00;;;;;;;17.43;100.00;100184.34;4956733;28;20102;-82
2023/06/28 06:37:20;;;;;;;4.85;0.93;;;;;;;17.45;100.00;100176.13;4926799;29;20051;-84
2023/06/28 06:39:46;;;;;;;2.28;1.25;;;;;;;17.47;100.00;100182.09;4978423;28;20086;-81
2023/06/28 06:42:12;;;;;;;5.22;1.38;;;;;;;17.49;100.00;100180.03;4972942;28;20039;-82
2023/06/28 06:44:37;;;;;;;2.10;1.17;;;;;;;17.49;100.00;100172.03;4969503;28;20034;-81
2023/06/28 06:47:03;;;;;;;4.85;1.30;;;;;;;17.53;100.00;100162.63;4966955;28;20039;-83
2023/06/28 06:49:29;;;;;;;1.95;1.10;;;;;;;17.55;100.00;100173.09;4949222;28;20070;-84
2023/06/28 06:51:55;;;;;;;1.75;0.90;;;;;;;17.54;100.00;100177.63;4939193;28;20066;-82
2023/06/28 06:54:21;;;;;;;1.17;0.80;;;;;;;17.59;100.00;100177.84;4957447;28;20046;-84
2023/06/28 06:56:47;;;;;;;3.05;1.05;;;;;;;17.59;100.00;100169.00;4950092;28;20493;-82
2023/06/28 06:59:15;;;;;;;0.93;0.70;;;;;;;17.59;100.00;100164.50;4962871;28;20045;-82
2023/06/28 07:01:41;;;;;;;1.67;0.73;;;;;;;17.63;100.00;100169.44;4942475;28;20062;-83
2023/06/28 07:04:06;;;;;;;1.88;0.85;;;;;;;17.63;100.00;100172.91;4941705;28;20076;-83
2023/06/28 07:06:32;;;;;;;0.73;0.70;;;;;;;17.66;100.00;100167.16;4948561;28;20030;-81
2023/06/28 07:08:59;;;;;;;9.07;0.95;;;;;;;17.68;100.00;100161.63;4941563;28;20045;-83
2023/06/28 07:11:25;;;;;;;2.90;0.82;;;;;;;17.66;100.00;100166.38;4976162;28;20065;-83
2023/06/28 07:13:51;;;;;;;1.15;0.80;;;;;;;17.70;100.00;100157.75;4957262;28;20034;-83
2023/06/28 07:16:17;;;;;;;1.23;0.60;;;;;;;17.73;100.00;100159.19;4970622;28;20027;-83
2023/06/28 07:18:43;;;;;;;1.80;0.63;;;;;;;17.74;100.00;100206.31;4955997;28;20085;-82
2023/06/28 07:21:09;;;;;;;6.60;0.30;;;;;;;17.53;100.00;100221.41;4960791;28;20041;-80
2023/06/28 07:23:34;;;;;;;5.25;0.32;;;;;;;16.87;100.00;100239.34;4960886;28;20035;-80
2023/06/28 07:26:00;;;;;;;0.40;0.10;;;;;;;16.34;100.00;100241.25;4953151;28;20934;-80
2023/06/28 07:28:26;;;;;;;0.68;0.10;;;;;;;15.95;100.00;100253.06;4972358;28;20822;-81
2023/06/28 07:30:54;;;;;;;0.30;0.00;;;;;;;15.65;100.00;100264.56;4954660;28;20409;-80
2023/06/28 07:33:23;;;;;;;3.13;0.10;;;;;;;15.37;100.00;100268.63;4971614;28;20073;-80
2023/06/28 07:35:50;;;;;;;1.52;0.00;;;;;;;15.14;100.00;100284.66;4958496;28;20030;-81
2023/06/28 07:38:18;;;;;;;5.63;0.13;;;;;;;15.03;100.00;100298.38;4954706;28;20031;-80
2023/06/28 07:40:48;;;;;;;0.00;0.00;;;;;;;14.96;100.00;100314.22;4981372;28;20109;-81
2023/06/28 07:43:15;;;;;;;0.52;0.13;;;;;;;14.81;100.00;100320.28;4972009;28;20030;-80
2023/06/28 07:45:41;;;;;;;0.75;0.00;;;;;;;14.70;100.00;100336.63;4972534;28;20030;-79
2023/06/28 07:48:07;;;;;;;0.00;0.00;;;;;;;14.67;100.00;100342.31;4989415;28;20355;-81
2023/06/28 07:50:34;;;;;;;0.00;0.00;;;;;;;14.62;100.00;100348.97;4938191;28;20039;-81
2023/06/28 07:53:00;;;;;;;2.63;0.00;;;;;;;14.61;100.00;100359.78;4936664;28;20047;-81
2023/06/28 07:55:27;;;;;;;0.00;0.00;;;;;;;14.53;100.00;100360.63;4940253;28;20034;-81
2023/06/28 07:58:02;;;;;;;0.00;0.00;;;;;;;14.55;100.00;100371.94;4961940;28;20050;-81
2023/06/28 08:00:28;;;;;;;1.98;0.00;;;;;;;14.46;100.00;100376.44;4945759;29;20658;-81
2023/06/28 08:02:54;;;;;;;0.00;0.00;;;;;;;14.50;100.00;100383.09;4954600;28;20093;-80
2023/06/28 08:05:20;;;;;;;0.47;0.00;;;;;;;14.48;100.00;100382.44;4954233;28;20486;-80
2023/06/28 08:07:46;;;;;;;0.00;0.00;;;;;;;14.45;100.00;100384.59;4955523;28;20110;-81
2023/06/28 08:10:12;;;;;;;0.20;0.00;;;;;;;14.40;100.00;100385.13;4921795;29;20486;-81
2023/06/28 08:12:38;;;;;;;0.00;0.00;;;;;;;14.40;100.00;100385.13;4960459;28;20042;-82
2023/06/28 08:15:04;;;;;;;1.35;0.00;;;;;;;14.39;100.00;100383.47;4946785;28;20040;-81
2023/06/28 08:17:31;;;;;;;0.30;0.00;;;;;;;14.35;100.00;100401.59;4954716;28;20061;-80
2023/06/28 08:19:57;;;;;;;0.00;0.00;;;;;;;14.35;100.00;100382.16;4953314;28;20038;-81
2023/06/28 08:22:24;;;;;;;0.08;0.00;;;;;;;14.34;100.00;100391.13;4927404;28;20073;-81
2023/06/28 08:24:50;;;;;;;0.00;0.00;;;;;;;14.32;100.00;100391.28;4950003;28;20038;-81
2023/06/28 08:27:16;;;;;;;0.00;0.00;;;;;;;14.33;100.00;100378.84;4946181;28;20041;-80
2023/06/28 08:29:42;;;;;;;0.00;0.00;;;;;;;14.35;100.00;100382.97;4938211;29;20501;-81
2023/06/28 08:32:09;;;;;;;0.45;0.00;;;;;;;14.41;100.00;100377.97;4939381;28;20046;-80
2023/06/28 08:34:35;;;;;;;0.50;0.03;;;;;;;14.49;100.00;100380.63;4969137;28;20409;-80
2023/06/28 08:37:03;;;;;;;0.10;0.10;;;;;;;14.52;100.00;100375.75;4977120;28;20044;-80
2023/06/28 08:39:29;;;;;;;0.20;0.00;;;;;;;14.60;100.00;100398.88;4946205;28;20043;-81
2023/06/28 08:41:56;;;;;;;0.25;0.05;;;;;;;14.69;100.00;100394.31;4948679;28;20034;-81
2023/06/28 08:44:25;;;;;;;0.10;0.00;;;;;;;14.89;100.00;100385.97;4987717;28;20039;-81
2023/06/28 08:46:53;;;;;;;0.10;0.10;;;;;;;14.99;100.00;100397.22;4944994;28;20520;-80
2023/06/28 08:49:19;;;;;;;0.10;0.00;;;;;;;15.16;100.00;100407.75;4932008;28;20473;-81
2023/06/28 08:51:46;;;;;;;0.50;0.30;;;;;;;15.30;100.00;100403.53;4946016;28;20053;-82
2023/06/28 08:54:14;;;;;;;0.15;0.10;;;;;;;15.39;100.00;100396.28;4934375;28;20069;-82
2023/06/28 08:56:41;;;;;;;0.10;0.10;;;;;;;15.48;100.00;100408.53;4924391;28;20035;-82
2023/06/28 08:59:08;;;;;;;2.17;0.13;;;;;;;15.60;100.00;100408.13;4952141;28;20125;-81
2023/06/28 09:01:35;;;;;;;0.25;0.10;;;;;;;15.68;100.00;100412.56;4955035;28;20050;-81
2023/06/28 09:04:04;;;;;;;0.57;0.17;;;;;;;15.72;100.00;100419.19;4932695;28;20065;-81
2023/06/28 09:06:30;;;;;;;0.17;0.10;;;;;;;15.60;100.00;100413.44;4923947;28;20038;-82
2023/06/28 09:08:57;;;;;;;0.43;0.20;;;;;;;15.59;100.00;100419.81;4949823;28;20681;-82
2023/06/28 09:11:25;;;;;;;0.38;0.20;;;;;;;15.63;100.00;100429.91;4951866;28;20030;-80
2023/06/28 09:13:51;;;;;;;0.95;0.10;;;;;;;15.65;100.00;100423.56;4936783;28;20035;-80
2023/06/28 09:16:17;;;;;;;1.15;0.60;;;;;;;15.63;100.00;100419.25;4930871;28;20034;-80
2023/06/28 09:18:43;;;;;;;3.60;0.30;;;;;;;15.61;100.00;100426.59;4940545;28;20403;-79
2023/06/28 09:21:09;;;;;;;1.80;0.35;;;;;;;15.65;100.00;100423.56;4962787;28;20038;-80
2023/06/28 09:23:35;;;;;;;1.75;0.10;;;;;;;15.68;100.00;100416.06;4959195;28;20478;-81
2023/06/28 09:26:01;;;;;;;3.35;0.20;;;;;;;15.73;100.00;100416.38;4939757;28;20039;-79
2023/06/28 09:28:35;;;;;;;0.40;0.13;;;;;;;15.81;100.00;100428.78;4949165;28;21534;-79
2023/06/28 09:31:05;;;;;;;0.10;0.10;;;;;;;15.80;100.00;100435.09;4943053;28;20043;-81
2023/06/28 09:33:32;;;;;;;4.07;0.10;;;;;;;15.77;100.00;100432.81;4944148;28;20041;-80
2023/06/28 09:36:00;;;;;;;0.65;0.10;;;;;;;15.79;100.00;100429.97;4961238;28;20516;-81
2023/06/28 09:38:27;;;;;;;0.20;0.10;;;;;;;15.72;100.00;100435.16;4952044;28;20455;-79
2023/06/28 09:41:02;;;;;;;0.32;0.05;;;;;;;15.71;100.00;100433.50;4953888;28;20489;-78
2023/06/28 09:43:32;;;;;;;1.13;0.08;;;;;;;15.63;100.00;100440.56;4948361;28;20113;-80
2023/06/28 09:46:11;;;;;;;0.10;0.08;;;;;;;15.62;100.00;100446.09;4946308;28;20039;-78
2023/06/28 09:48:37;;;;;;;0.00;0.00;;;;;;;15.60;100.00;100448.09;4945960;28;20085;-79
2023/06/28 09:51:06;;;;;;;0.03;0.00;;;;;;;15.65;100.00;100448.41;4948242;28;20047;-80
2023/06/28 09:53:32;;;;;;;0.30;0.03;;;;;;;15.65;100.00;100459.06;4940616;28;20174;-80
2023/06/28 09:55:58;;;;;;;0.00;0.00;;;;;;;15.65;100.00;100461.72;4939259;28;20046;-79
2023/06/28 09:58:27;;;;;;;0.00;0.00;;;;;;;15.68;100.00;100458.69;4955666;28;20043;-81
2023/06/28 10:00:53;;;;;;;0.20;0.10;;;;;;;15.66;100.00;100460.69;4925958;28;20066;-80
2023/06/28 10:03:25;;;;;;;0.15;0.05;;;;;;;15.73;100.00;100450.16;4957556;28;20390;-80
2023/06/28 10:05:56;;;;;;;1.75;0.15;;;;;;;15.78;100.00;100447.81;4937682;28;20042;-81
2023/06/28 10:08:24;;;;;;;2.20;0.20;;;;;;;15.81;100.00;100451.94;4946045;28;20079;-81
2023/06/28 10:10:54;;;;;;;0.00;0.00;;;;;;;15.83;100.00;100455.25;4950280;28;20045;-81
2023/06/28 10:13:21;;;;;;;0.52;0.05;;;;;;;15.84;100.00;100463.06;4927581;29;20413;-81
2023/06/28 10:15:59;;;;;;;0.20;0.00;;;;;;;15.94;100.00;100478.00;4953377;28;20122;-81
2023/06/28 10:18:25;;;;;;;0.00;0.00;;;;;;;15.88;100.00;100469.69;4953287;28;20035;-81
2023/06/28 10:20:51;;;;;;;2.67;0.30;;;;;;;15.93;100.00;100469.16;4923131;28;20054;-80
2023/06/28 10:23:17;;;;;;;0.93;0.10;;;;;;;15.97;100.00;100475.81;4943701;28;20042;-81
2023/06/28 10:25:46;;;;;;;0.57;0.03;;;;;;;16.12;100.00;100478.53;4953556;28;20053;-82
2023/06/28 10:28:13;;;;;;;0.30;0.10;;;;;;;16.21;100.00;100476.59;4954415;28;20026;-81
2023/06/28 10:30:41;;;;;;;0.20;0.00;;;;;;;16.36;100.00;100473.13;4938781;28;20049;-81
2023/06/28 10:33:07;;;;;;;0.00;0.00;;;;;;;16.43;100.00;100475.91;4954055;28;20048;-81
2023/06/28 10:35:33;;;;;;;1.90;0.10;;;;;;;16.53;100.00;100478.31;4920203;29;20055;-81
2023/06/28 10:37:59;;;;;;;0.52;0.03;;;;;;;16.55;100.00;100490.44;4933209;28;20133;-81
2023/06/28 10:40:26;;;;;;;1.30;0.10;;;;;;;16.57;100.00;100480.44;4935641;29;20039;-82
2023/06/28 10:42:52;;;;;;;0.73;0.10;;;;;;;16.64;100.00;100491.22;4932772;28;20035;-82
2023/06/28 10:45:32;;;;;;;0.00;0.00;;;;;;;16.66;100.00;100486.50;4954543;28;20058;-81
2023/06/28 10:47:59;;;;;;;0.20;0.10;;;;;;;16.59;100.00;100480.25;4936947;28;20497;-82
2023/06/28 10:50:25;;;;;;;0.30;0.10;;;;;;;16.53;100.00;100486.31;4938518;28;20441;-82
2023/06/28 10:52:56;;;;;;;0.28;0.15;;;;;;;16.54;100.00;100494.13;4938450;28;20035;-81
2023/06/28 10:55:29;;;;;;;1.27;0.30;;;;;;;16.55;100.00;100486.94;4964356;28;20121;-81
2023/06/28 10:58:10;;;;;;;0.35;0.15;;;;;;;16.66;100.00;100483.81;4959139;28;20366;-81
2023/06/28 11:00:43;;;;;;;0.68;0.30;;;;;;;16.69;100.00;100483.47;4972777;28;20030;-80
2023/06/28 11:03:09;;;;;;;3.83;0.15;;;;;;;16.52;100.00;100497.97;4958336;28;20061;-82
2023/06/28 11:05:37;;;;;;;2.42;0.20;;;;;;;16.41;100.00;100493.94;4962003;28;20031;-81
2023/06/28 11:08:08;;;;;;;2.67;1.90;;;;;;;16.41;100.00;100492.09;4970341;28;20173;-82
2023/06/28 11:10:42;;;;;;;1.65;0.70;;;;;;;16.45;100.00;100493.38;4951584;28;20061;-81
2023/06/28 11:13:14;;;;;;;3.97;1.83;;;;;;;16.54;100.00;100490.63;4949427;28;20733;-81
2023/06/28 11:15:45;;;;;;;0.75;0.13;;;;;;;16.63;100.00;100499.41;4959307;28;20394;-80